Other Surface Observations
Issued by NWS Great Falls, MT

Home | Current Version | Previous Version | Text Only | Print | Product List | Glossary On
Versions: 1 2 3 4 5 6 7 8 9 10 11 12 13 14 15 16 17 18 19 20 21 22 23 24 25 26 27 28 29 30 31 32 33 34 35 36 37 38 39 40 41 42 43 44 45 46 47 48 49 50
000
SXUS55 KTFX 200714
OSOTFX
AREA AWOS OBSERVATIONS
NATIONAL WEATHER SERVICE GREAT FALLS MT
1214 AM MST MON FEB 20 2017

METAR KPWD 200715Z AUTO 26004KT 1/4SM 00/00 A2962 RMK PLENTYWOOD
METAR KPO1 200715Z AUTO 25004KT 1/4SM 00/M01 A2965 RMK POPLAR
METAR K1S3 200715Z AUTO 24003KT 10SM 05/02 A2967 RMK FORSYTH
METAR KS71 200715Z AUTO 27003KT 10SM M01/M03 A2963 RMK CHINOOK
METAR K79S 200715Z AUTO 10SM 02/M01 A2967 RMK FORT BENTON
METAR K38S 200715Z AUTO 27003KT 10SM M01/M06 A2975 RMK DEER LODGE
METAR K3U3 200715Z AUTO 20011G21KT 10SM 01/M06 A2972 RMK ANACONDA
METAR K6S5 200715Z AUTO 00000KT 10SM M01/M02 A2975 RMK HAMILTON
METAR KS59 200715Z AUTO 00000KT 10SM M02/M02 A2970 RMK LIBBY
METAR K88M 200715Z AUTO 14009KT 10SM 03/M02 A2969 RMK EUREKA



USA.gov is the U.S. government's official web portal to all federal, state and local government web resources and services.